sensor_id;sensor_type;location;lat;lon;timestamp;temperature;humidity
15203;DHT22;7702;51.046;5.184;2024-02-23T00:02:24;6.10;99.90
15203;DHT22;7702;51.046;5.184;2024-02-23T00:04:50;6.10;99.90
15203;DHT22;7702;51.046;5.184;2024-02-23T00:07:16;6.10;99.90
15203;DHT22;7702;51.046;5.184;2024-02-23T00:09:41;6.00;99.90
15203;DHT22;7702;51.046;5.184;2024-02-23T00:12:07;5.90;99.90
15203;DHT22;7702;51.046;5.184;2024-02-23T00:14:34;5.90;99.90
15203;DHT22;7702;51.046;5.184;2024-02-23T00:17:02;5.90;99.90
15203;DHT22;7702;51.046;5.184;2024-02-23T00:19:30;5.90;99.90
15203;DHT22;7702;51.046;5.184;2024-02-23T00:21:56;5.80;99.90
15203;DHT22;7702;51.046;5.184;2024-02-23T00:24:23;5.90;99.90
15203;DHT22;7702;51.046;5.184;2024-02-23T00:26:48;5.80;99.90
15203;DHT22;7702;51.046;5.184;2024-02-23T00:29:16;5.80;99.90
15203;DHT22;7702;51.046;5.184;2024-02-23T00:31:43;5.80;99.90
15203;DHT22;7702;51.046;5.184;2024-02-23T00:34:11;5.70;99.90
15203;DHT22;7702;51.046;5.184;2024-02-23T00:36:41;5.70;99.90
15203;DHT22;7702;51.046;5.184;2024-02-23T00:39:08;5.60;99.90
15203;DHT22;7702;51.046;5.184;2024-02-23T00:41:34;5.60;99.90
15203;DHT22;7702;51.046;5.184;2024-02-23T00:44:00;5.50;99.90
15203;DHT22;7702;51.046;5.184;2024-02-23T00:46:26;5.50;99.90
15203;DHT22;7702;51.046;5.184;2024-02-23T00:48:51;5.60;99.90
15203;DHT22;7702;51.046;5.184;2024-02-23T00:51:17;5.60;99.90
15203;DHT22;7702;51.046;5.184;2024-02-23T00:53:43;5.50;99.90
15203;DHT22;7702;51.046;5.184;2024-02-23T00:56:08;5.50;99.90
15203;DHT22;7702;51.046;5.184;2024-02-23T00:58:35;5.50;99.90
15203;DHT22;7702;51.046;5.184;2024-02-23T01:01:01;5.50;99.90
15203;DHT22;7702;51.046;5.184;2024-02-23T01:03:26;5.50;99.90
15203;DHT22;7702;51.046;5.184;2024-02-23T01:05:52;5.50;99.90
15203;DHT22;7702;51.046;5.184;2024-02-23T01:08:19;5.50;99.90
15203;DHT22;7702;51.046;5.184;2024-02-23T01:10:44;5.50;99.90
15203;DHT22;7702;51.046;5.184;2024-02-23T01:13:10;5.50;99.90
15203;DHT22;7702;51.046;5.184;2024-02-23T01:15:36;5.50;99.90
15203;DHT22;7702;51.046;5.184;2024-02-23T01:18:01;5.50;99.90
15203;DHT22;7702;51.046;5.184;2024-02-23T01:20:27;5.50;99.90
15203;DHT22;7702;51.046;5.184;2024-02-23T01:22:53;5.50;99.90
15203;DHT22;7702;51.046;5.184;2024-02-23T01:25:19;5.50;99.90
15203;DHT22;7702;51.046;5.184;2024-02-23T01:27:44;5.50;99.90
15203;DHT22;7702;51.046;5.184;2024-02-23T01:30:11;5.50;99.90
15203;DHT22;7702;51.046;5.184;2024-02-23T01:32:36;5.50;99.90
15203;DHT22;7702;51.046;5.184;2024-02-23T01:35:05;5.40;99.90
15203;DHT22;7702;51.046;5.184;2024-02-23T01:37:32;5.40;99.90
15203;DHT22;7702;51.046;5.184;2024-02-23T01:39:58;5.50;99.90
15203;DHT22;7702;51.046;5.184;2024-02-23T01:42:24;5.40;99.90
15203;DHT22;7702;51.046;5.184;2024-02-23T01:44:51;5.40;99.90
15203;DHT22;7702;51.046;5.184;2024-02-23T01:47:17;5.30;99.90
15203;DHT22;7702;51.046;5.184;2024-02-23T01:49:44;5.30;99.90
15203;DHT22;7702;51.046;5.184;2024-02-23T01:52:10;5.40;99.90
15203;DHT22;7702;51.046;5.184;2024-02-23T01:54:37;5.30;99.90
15203;DHT22;7702;51.046;5.184;2024-02-23T01:57:03;5.20;99.90
15203;DHT22;7702;51.046;5.184;2024-02-23T01:59:29;5.20;99.90
15203;DHT22;7702;51.046;5.184;2024-02-23T02:01:55;5.20;99.90
15203;DHT22;7702;51.046;5.184;2024-02-23T02:04:21;5.10;99.90
15203;DHT22;7702;51.046;5.184;2024-02-23T02:06:47;5.10;99.90
15203;DHT22;7702;51.046;5.184;2024-02-23T02:09:14;5.10;99.90
15203;DHT22;7702;51.046;5.184;2024-02-23T02:11:49;5.10;99.90
15203;DHT22;7702;51.046;5.184;2024-02-23T02:14:15;5.10;99.90
15203;DHT22;7702;51.046;5.184;2024-02-23T02:16:41;5.10;99.90
15203;DHT22;7702;51.046;5.184;2024-02-23T02:19:07;5.10;99.90
15203;DHT22;7702;51.046;5.184;2024-02-23T02:21:33;5.00;99.90
15203;DHT22;7702;51.046;5.184;2024-02-23T02:24:00;5.00;99.90
15203;DHT22;7702;51.046;5.184;2024-02-23T02:26:25;5.00;99.90
15203;DHT22;7702;51.046;5.184;2024-02-23T02:28:51;5.00;99.90
15203;DHT22;7702;51.046;5.184;2024-02-23T02:31:18;5.10;99.90
15203;DHT22;7702;51.046;5.184;2024-02-23T02:33:44;5.10;99.90
15203;DHT22;7702;51.046;5.184;2024-02-23T02:36:09;5.10;99.90
15203;DHT22;7702;51.046;5.184;2024-02-23T02:38:37;5.10;99.90
15203;DHT22;7702;51.046;5.184;2024-02-23T02:41:03;5.20;99.90
15203;DHT22;7702;51.046;5.184;2024-02-23T02:43:30;5.30;99.90
15203;DHT22;7702;51.046;5.184;2024-02-23T02:45:56;5.40;99.90
15203;DHT22;7702;51.046;5.184;2024-02-23T02:48:22;5.30;99.90
15203;DHT22;7702;51.046;5.184;2024-02-23T02:50:48;5.30;99.90
15203;DHT22;7702;51.046;5.184;2024-02-23T02:53:15;5.30;99.90
15203;DHT22;7702;51.046;5.184;2024-02-23T02:55:44;5.30;99.90
15203;DHT22;7702;51.046;5.184;2024-02-23T02:58:14;5.20;99.90
15203;DHT22;7702;51.046;5.184;2024-02-23T03:00:40;5.20;99.90
15203;DHT22;7702;51.046;5.184;2024-02-23T03:03:06;5.10;99.90
15203;DHT22;7702;51.046;5.184;2024-02-23T03:05:31;5.10;99.90
15203;DHT22;7702;51.046;5.184;2024-02-23T03:07:57;5.10;99.90
15203;DHT22;7702;51.046;5.184;2024-02-23T03:10:23;5.20;99.90
15203;DHT22;7702;51.046;5.184;2024-02-23T03:12:48;5.20;99.90
15203;DHT22;7702;51.046;5.184;2024-02-23T03:15:14;5.20;99.90
15203;DHT22;7702;51.046;5.184;2024-02-23T03:17:40;5.20;99.90
15203;DHT22;7702;51.046;5.184;2024-02-23T03:20:06;5.20;99.90
15203;DHT22;7702;51.046;5.184;2024-02-23T03:22:36;5.20;99.90
15203;DHT22;7702;51.046;5.184;2024-02-23T03:25:03;5.20;99.90
15203;DHT22;7702;51.046;5.184;2024-02-23T03:27:34;5.20;99.90
15203;DHT22;7702;51.046;5.184;2024-02-23T03:30:00;5.30;99.90
15203;DHT22;7702;51.046;5.184;2024-02-23T03:32:26;5.30;99.90
15203;DHT22;7702;51.046;5.184;2024-02-23T03:34:52;5.40;99.90
15203;DHT22;7702;51.046;5.184;2024-02-23T03:37:17;5.50;99.90
15203;DHT22;7702;51.046;5.184;2024-02-23T03:39:44;5.50;99.90
15203;DHT22;7702;51.046;5.184;2024-02-23T03:42:09;5.50;99.90
15203;DHT22;7702;51.046;5.184;2024-02-23T03:44:35;5.50;99.90
15203;DHT22;7702;51.046;5.184;2024-02-23T03:47:00;5.60;99.90
15203;DHT22;7702;51.046;5.184;2024-02-23T03:49:26;5.60;99.90
15203;DHT22;7702;51.046;5.184;2024-02-23T03:51:52;5.60;99.90
15203;DHT22;7702;51.046;5.184;2024-02-23T03:54:18;5.60;99.90
15203;DHT22;7702;51.046;5.184;2024-02-23T03:56:43;5.60;99.90
15203;DHT22;7702;51.046;5.184;2024-02-23T03:59:09;5.60;99.90
15203;DHT22;7702;51.046;5.184;2024-02-23T04:01:37;5.60;99.90
15203;DHT22;7702;51.046;5.184;2024-02-23T04:04:03;5.60;99.90
15203;DHT22;7702;51.046;5.184;2024-02-23T04:06:29;5.60;99.90
15203;DHT22;7702;51.046;5.184;2024-02-23T04:08:54;5.50;99.90
15203;DHT22;7702;51.046;5.184;2024-02-23T04:11:20;5.60;99.90
15203;DHT22;7702;51.046;5.184;2024-02-23T04:13:46;5.60;99.90
15203;DHT22;7702;51.046;5.184;2024-02-23T04:16:11;5.60;99.90
15203;DHT22;7702;51.046;5.184;2024-02-23T04:18:37;5.60;99.90
15203;DHT22;7702;51.046;5.184;2024-02-23T04:21:03;5.60;99.90
15203;DHT22;7702;51.046;5.184;2024-02-23T04:23:29;5.70;99.90
15203;DHT22;7702;51.046;5.184;2024-02-23T04:25:54;5.70;99.90
15203;DHT22;7702;51.046;5.184;2024-02-23T04:28:20;5.70;99.90
15203;DHT22;7702;51.046;5.184;2024-02-23T04:30:45;5.70;99.90
15203;DHT22;7702;51.046;5.184;2024-02-23T04:33:11;5.70;99.90
15203;DHT22;7702;51.046;5.184;2024-02-23T04:35:38;5.70;99.90
15203;DHT22;7702;51.046;5.184;2024-02-23T04:38:04;5.70;99.90
15203;DHT22;7702;51.046;5.184;2024-02-23T04:40:29;5.80;99.90
15203;DHT22;7702;51.046;5.184;2024-02-23T04:42:55;5.80;99.90
15203;DHT22;7702;51.046;5.184;2024-02-23T04:45:21;5.80;99.90
15203;DHT22;7702;51.046;5.184;2024-02-23T04:47:46;5.80;99.90
15203;DHT22;7702;51.046;5.184;2024-02-23T04:50:13;5.80;99.90
15203;DHT22;7702;51.046;5.184;2024-02-23T04:52:39;5.80;99.90
15203;DHT22;7702;51.046;5.184;2024-02-23T04:55:05;5.80;99.90
15203;DHT22;7702;51.046;5.184;2024-02-23T04:57:31;5.80;99.90
15203;DHT22;7702;51.046;5.184;2024-02-23T04:59:57;5.90;99.90
15203;DHT22;7702;51.046;5.184;2024-02-23T05:02:23;5.90;99.90
15203;DHT22;7702;51.046;5.184;2024-02-23T05:04:49;5.90;99.90
15203;DHT22;7702;51.046;5.184;2024-02-23T05:07:14;5.90;99.90
15203;DHT22;7702;51.046;5.184;2024-02-23T05:09:40;5.90;99.90
15203;DHT22;7702;51.046;5.184;2024-02-23T05:12:07;5.90;99.90
15203;DHT22;7702;51.046;5.184;2024-02-23T05:14:33;5.90;99.90
15203;DHT22;7702;51.046;5.184;2024-02-23T05:16:59;5.90;99.90
15203;DHT22;7702;51.046;5.184;2024-02-23T05:19:24;6.00;99.90
15203;DHT22;7702;51.046;5.184;2024-02-23T05:21:50;6.00;99.90
15203;DHT22;7702;51.046;5.184;2024-02-23T05:24:16;6.00;99.90
15203;DHT22;7702;51.046;5.184;2024-02-23T05:26:41;6.00;99.90
15203;DHT22;7702;51.046;5.184;2024-02-23T05:29:09;6.00;99.90
15203;DHT22;7702;51.046;5.184;2024-02-23T05:31:49;6.00;99.90
15203;DHT22;7702;51.046;5.184;2024-02-23T05:34:15;6.10;99.90
15203;DHT22;7702;51.046;5.184;2024-02-23T05:36:41;6.10;99.90
15203;DHT22;7702;51.046;5.184;2024-02-23T05:39:08;6.10;99.90
15203;DHT22;7702;51.046;5.184;2024-02-23T05:41:35;6.00;99.90
15203;DHT22;7702;51.046;5.184;2024-02-23T05:44:02;6.10;99.90
15203;DHT22;7702;51.046;5.184;2024-02-23T05:46:34;6.10;99.90
15203;DHT22;7702;51.046;5.184;2024-02-23T05:48:59;6.10;99.90
15203;DHT22;7702;51.046;5.184;2024-02-23T05:51:25;6.10;99.90
15203;DHT22;7702;51.046;5.184;2024-02-23T05:53:52;6.00;99.90
15203;DHT22;7702;51.046;5.184;2024-02-23T05:56:18;6.10;99.90
15203;DHT22;7702;51.046;5.184;2024-02-23T05:58:43;6.10;99.90
15203;DHT22;7702;51.046;5.184;2024-02-23T06:01:09;6.00;99.90
15203;DHT22;7702;51.046;5.184;2024-02-23T06:03:34;6.00;99.90
15203;DHT22;7702;51.046;5.184;2024-02-23T06:06:00;6.00;99.90
15203;DHT22;7702;51.046;5.184;2024-02-23T06:08:26;6.00;99.90
15203;DHT22;7702;51.046;5.184;2024-02-23T06:10:51;5.90;99.90
15203;DHT22;7702;51.046;5.184;2024-02-23T06:13:17;5.90;99.90
15203;DHT22;7702;51.046;5.184;2024-02-23T06:15:42;6.00;99.90
15203;DHT22;7702;51.046;5.184;2024-02-23T06:18:09;5.90;99.90
15203;DHT22;7702;51.046;5.184;2024-02-23T06:20:35;5.90;99.90
15203;DHT22;7702;51.046;5.184;2024-02-23T06:23:00;6.00;99.90
15203;DHT22;7702;51.046;5.184;2024-02-23T06:25:26;6.00;99.90
15203;DHT22;7702;51.046;5.184;2024-02-23T06:27:52;6.00;99.90
15203;DHT22;7702;51.046;5.184;2024-02-23T06:30:17;6.00;99.90
15203;DHT22;7702;51.046;5.184;2024-02-23T06:32:45;6.00;99.90
15203;DHT22;7702;51.046;5.184;2024-02-23T06:35:11;6.00;99.90
15203;DHT22;7702;51.046;5.184;2024-02-23T06:37:37;5.90;99.90
15203;DHT22;7702;51.046;5.184;2024-02-23T06:40:03;5.90;99.90
15203;DHT22;7702;51.046;5.184;2024-02-23T06:42:29;6.00;99.90
15203;DHT22;7702;51.046;5.184;2024-02-23T06:44:55;6.00;99.90
15203;DHT22;7702;51.046;5.184;2024-02-23T06:47:21;6.00;99.90
15203;DHT22;7702;51.046;5.184;2024-02-23T06:49:47;6.00;99.90
15203;DHT22;7702;51.046;5.184;2024-02-23T06:52:13;6.00;99.90
15203;DHT22;7702;51.046;5.184;2024-02-23T06:54:39;6.00;99.90
15203;DHT22;7702;51.046;5.184;2024-02-23T06:57:04;6.00;99.90
15203;DHT22;7702;51.046;5.184;2024-02-23T06:59:31;6.00;99.90
15203;DHT22;7702;51.046;5.184;2024-02-23T07:01:57;6.00;99.90
15203;DHT22;7702;51.046;5.184;2024-02-23T07:04:23;6.00;99.90
15203;DHT22;7702;51.046;5.184;2024-02-23T07:06:48;6.00;99.90
15203;DHT22;7702;51.046;5.184;2024-02-23T07:09:14;6.00;99.90
15203;DHT22;7702;51.046;5.184;2024-02-23T07:11:40;6.00;99.90
15203;DHT22;7702;51.046;5.184;2024-02-23T07:14:08;6.00;99.90
15203;DHT22;7702;51.046;5.184;2024-02-23T07:16:38;6.00;99.90
15203;DHT22;7702;51.046;5.184;2024-02-23T07:19:04;6.10;99.90
15203;DHT22;7702;51.046;5.184;2024-02-23T07:21:30;6.10;99.90
15203;DHT22;7702;51.046;5.184;2024-02-23T07:23:56;6.10;99.90
15203;DHT22;7702;51.046;5.184;2024-02-23T07:26:22;6.20;99.90
15203;DHT22;7702;51.046;5.184;2024-02-23T07:28:48;6.20;99.90
15203;DHT22;7702;51.046;5.184;2024-02-23T07:31:14;6.20;99.90
15203;DHT22;7702;51.046;5.184;2024-02-23T07:33:40;6.10;99.90
15203;DHT22;7702;51.046;5.184;2024-02-23T07:36:06;6.20;99.90
15203;DHT22;7702;51.046;5.184;2024-02-23T07:38:34;6.30;99.90
15203;DHT22;7702;51.046;5.184;2024-02-23T07:40:59;6.20;99.90
15203;DHT22;7702;51.046;5.184;2024-02-23T07:43:25;6.30;99.90
15203;DHT22;7702;51.046;5.184;2024-02-23T07:45:53;6.30;99.90
15203;DHT22;7702;51.046;5.184;2024-02-23T07:48:19;6.30;99.90
15203;DHT22;7702;51.046;5.184;2024-02-23T07:50:45;6.30;99.90
15203;DHT22;7702;51.046;5.184;2024-02-23T07:53:10;6.30;99.90
15203;DHT22;7702;51.046;5.184;2024-02-23T07:55:36;6.40;99.90
15203;DHT22;7702;51.046;5.184;2024-02-23T07:58:01;6.40;99.90
15203;DHT22;7702;51.046;5.184;2024-02-23T08:00:27;6.50;99.90
15203;DHT22;7702;51.046;5.184;2024-02-23T08:02:53;6.40;99.90
15203;DHT22;7702;51.046;5.184;2024-02-23T08:05:22;6.40;99.90
15203;DHT22;7702;51.046;5.184;2024-02-23T08:07:49;6.40;99.90
15203;DHT22;7702;51.046;5.184;2024-02-23T08:10:14;6.40;99.90
15203;DHT22;7702;51.046;5.184;2024-02-23T08:12:40;6.50;99.90
15203;DHT22;7702;51.046;5.184;2024-02-23T08:15:06;6.50;99.90
15203;DHT22;7702;51.046;5.184;2024-02-23T08:17:32;6.50;99.90
15203;DHT22;7702;51.046;5.184;2024-02-23T08:19:58;6.50;99.90
15203;DHT22;7702;51.046;5.184;2024-02-23T08:22:24;6.50;99.90
15203;DHT22;7702;51.046;5.184;2024-02-23T08:24:49;6.60;99.90
15203;DHT22;7702;51.046;5.184;2024-02-23T08:27:15;6.70;99.90
15203;DHT22;7702;51.046;5.184;2024-02-23T08:29:41;6.70;99.90
15203;DHT22;7702;51.046;5.184;2024-02-23T08:32:07;6.80;99.90
15203;DHT22;7702;51.046;5.184;2024-02-23T08:34:33;6.80;99.90
15203;DHT22;7702;51.046;5.184;2024-02-23T08:37:00;7.00;99.90
15203;DHT22;7702;51.046;5.184;2024-02-23T08:39:26;7.20;99.90
15203;DHT22;7702;51.046;5.184;2024-02-23T08:41:52;7.50;99.90
15203;DHT22;7702;51.046;5.184;2024-02-23T08:44:18;7.60;99.90
15203;DHT22;7702;51.046;5.184;2024-02-23T08:46:44;7.60;99.90
15203;DHT22;7702;51.046;5.184;2024-02-23T08:49:10;7.40;99.90
15203;DHT22;7702;51.046;5.184;2024-02-23T08:51:35;7.30;99.90
15203;DHT22;7702;51.046;5.184;2024-02-23T08:54:01;7.40;99.90
15203;DHT22;7702;51.046;5.184;2024-02-23T08:56:30;7.30;99.90
15203;DHT22;7702;51.046;5.184;2024-02-23T08:58:56;7.30;99.90
15203;DHT22;7702;51.046;5.184;2024-02-23T09:01:22;7.30;99.90
15203;DHT22;7702;51.046;5.184;2024-02-23T09:03:48;7.10;99.90
15203;DHT22;7702;51.046;5.184;2024-02-23T09:06:13;6.80;99.90
15203;DHT22;7702;51.046;5.184;2024-02-23T09:08:39;6.80;99.90
15203;DHT22;7702;51.046;5.184;2024-02-23T09:11:06;6.80;99.90
15203;DHT22;7702;51.046;5.184;2024-02-23T09:13:32;6.80;99.90
15203;DHT22;7702;51.046;5.184;2024-02-23T09:15:58;6.70;99.90
15203;DHT22;7702;51.046;5.184;2024-02-23T09:18:23;6.80;99.90
15203;DHT22;7702;51.046;5.184;2024-02-23T09:20:49;6.80;99.90
15203;DHT22;7702;51.046;5.184;2024-02-23T09:23:15;6.80;99.90
15203;DHT22;7702;51.046;5.184;2024-02-23T09:25:40;6.80;99.90
15203;DHT22;7702;51.046;5.184;2024-02-23T09:28:07;6.80;99.90
15203;DHT22;7702;51.046;5.184;2024-02-23T09:30:32;6.90;99.90
15203;DHT22;7702;51.046;5.184;2024-02-23T09:32:58;7.00;99.90
15203;DHT22;7702;51.046;5.184;2024-02-23T09:35:24;7.00;99.90
15203;DHT22;7702;51.046;5.184;2024-02-23T09:37:50;7.20;99.90
15203;DHT22;7702;51.046;5.184;2024-02-23T09:40:16;7.50;99.90
15203;DHT22;7702;51.046;5.184;2024-02-23T09:42:42;7.50;99.90
15203;DHT22;7702;51.046;5.184;2024-02-23T09:45:08;7.50;99.90
15203;DHT22;7702;51.046;5.184;2024-02-23T09:47:36;7.70;99.90
15203;DHT22;7702;51.046;5.184;2024-02-23T09:50:04;7.80;99.90
15203;DHT22;7702;51.046;5.184;2024-02-23T09:52:31;7.90;99.90
15203;DHT22;7702;51.046;5.184;2024-02-23T09:54:57;7.90;99.90
15203;DHT22;7702;51.046;5.184;2024-02-23T09:57:23;7.90;99.90
15203;DHT22;7702;51.046;5.184;2024-02-23T09:59:50;7.70;99.90
15203;DHT22;7702;51.046;5.184;2024-02-23T10:02:17;7.50;99.90
15203;DHT22;7702;51.046;5.184;2024-02-23T10:04:43;7.40;99.90
15203;DHT22;7702;51.046;5.184;2024-02-23T10:07:09;7.20;99.90
15203;DHT22;7702;51.046;5.184;2024-02-23T10:09:36;7.20;99.90
15203;DHT22;7702;51.046;5.184;2024-02-23T10:12:02;7.20;99.90
15203;DHT22;7702;51.046;5.184;2024-02-23T10:14:28;7.20;99.90
15203;DHT22;7702;51.046;5.184;2024-02-23T10:16:54;7.30;99.90
15203;DHT22;7702;51.046;5.184;2024-02-23T10:19:21;7.50;99.90
15203;DHT22;7702;51.046;5.184;2024-02-23T10:21:47;7.50;99.90
15203;DHT22;7702;51.046;5.184;2024-02-23T10:24:16;7.60;99.90
15203;DHT22;7702;51.046;5.184;2024-02-23T10:26:42;7.90;99.90
15203;DHT22;7702;51.046;5.184;2024-02-23T10:29:08;7.80;99.90
15203;DHT22;7702;51.046;5.184;2024-02-23T10:31:37;7.80;99.90
15203;DHT22;7702;51.046;5.184;2024-02-23T10:34:08;8.00;99.90
15203;DHT22;7702;51.046;5.184;2024-02-23T10:36:41;8.40;99.90
15203;DHT22;7702;51.046;5.184;2024-02-23T10:39:11;8.40;99.90
15203;DHT22;7702;51.046;5.184;2024-02-23T10:41:47;8.30;99.90
15203;DHT22;7702;51.046;5.184;2024-02-23T10:44:24;8.30;99.90
15203;DHT22;7702;51.046;5.184;2024-02-23T10:46:50;8.40;99.90
15203;DHT22;7702;51.046;5.184;2024-02-23T10:49:17;8.40;99.90
15203;DHT22;7702;51.046;5.184;2024-02-23T10:51:46;8.40;99.90
15203;DHT22;7702;51.046;5.184;2024-02-23T10:54:14;8.30;99.90
15203;DHT22;7702;51.046;5.184;2024-02-23T10:56:42;8.30;99.90
15203;DHT22;7702;51.046;5.184;2024-02-23T10:59:09;8.40;99.90
15203;DHT22;7702;51.046;5.184;2024-02-23T11:01:36;8.40;99.90
15203;DHT22;7702;51.046;5.184;2024-02-23T11:04:06;8.50;99.90
15203;DHT22;7702;51.046;5.184;2024-02-23T11:06:34;8.30;99.90
15203;DHT22;7702;51.046;5.184;2024-02-23T11:09:06;8.40;99.90
15203;DHT22;7702;51.046;5.184;2024-02-23T11:11:36;8.70;99.90
15203;DHT22;7702;51.046;5.184;2024-02-23T11:14:03;8.60;99.90
15203;DHT22;7702;51.046;5.184;2024-02-23T11:16:31;8.60;99.90
15203;DHT22;7702;51.046;5.184;2024-02-23T11:19:09;8.50;99.90
15203;DHT22;7702;51.046;5.184;2024-02-23T11:21:37;8.50;99.90
15203;DHT22;7702;51.046;5.184;2024-02-23T11:24:05;8.60;99.90
15203;DHT22;7702;51.046;5.184;2024-02-23T11:26:31;8.60;99.90
15203;DHT22;7702;51.046;5.184;2024-02-23T11:28:59;8.60;99.90
15203;DHT22;7702;51.046;5.184;2024-02-23T11:31:29;8.50;99.90
15203;DHT22;7702;51.046;5.184;2024-02-23T11:33:56;8.70;99.90
15203;DHT22;7702;51.046;5.184;2024-02-23T11:38:52;8.70;99.90
15203;DHT22;7702;51.046;5.184;2024-02-23T11:41:20;8.60;99.90
15203;DHT22;7702;51.046;5.184;2024-02-23T11:43:47;8.60;99.90
15203;DHT22;7702;51.046;5.184;2024-02-23T11:46:14;8.70;99.90
15203;DHT22;7702;51.046;5.184;2024-02-23T11:48:40;8.80;99.90
15203;DHT22;7702;51.046;5.184;2024-02-23T11:51:06;8.90;99.90
15203;DHT22;7702;51.046;5.184;2024-02-23T11:53:33;8.90;99.90
15203;DHT22;7702;51.046;5.184;2024-02-23T11:55:58;8.90;99.90
15203;DHT22;7702;51.046;5.184;2024-02-23T11:58:24;8.80;99.90
15203;DHT22;7702;51.046;5.184;2024-02-23T12:00:51;8.90;99.90
15203;DHT22;7702;51.046;5.184;2024-02-23T12:03:16;9.00;99.90
15203;DHT22;7702;51.046;5.184;2024-02-23T12:05:43;8.90;99.90
15203;DHT22;7702;51.046;5.184;2024-02-23T12:08:09;8.90;99.90
15203;DHT22;7702;51.046;5.184;2024-02-23T12:10:34;8.80;99.90
15203;DHT22;7702;51.046;5.184;2024-02-23T12:13:01;8.90;99.90
15203;DHT22;7702;51.046;5.184;2024-02-23T12:15:28;9.00;99.90
15203;DHT22;7702;51.046;5.184;2024-02-23T12:17:58;8.90;99.90
15203;DHT22;7702;51.046;5.184;2024-02-23T12:20:25;8.80;99.90
15203;DHT22;7702;51.046;5.184;2024-02-23T12:22:55;8.60;99.90
15203;DHT22;7702;51.046;5.184;2024-02-23T12:25:21;8.60;99.90
15203;DHT22;7702;51.046;5.184;2024-02-23T12:27:54;8.50;99.90
15203;DHT22;7702;51.046;5.184;2024-02-23T12:30:21;8.50;99.90
15203;DHT22;7702;51.046;5.184;2024-02-23T12:32:47;8.40;99.90
15203;DHT22;7702;51.046;5.184;2024-02-23T12:35:12;8.40;99.90
15203;DHT22;7702;51.046;5.184;2024-02-23T12:37:39;8.50;99.90
15203;DHT22;7702;51.046;5.184;2024-02-23T12:40:07;8.50;99.90
15203;DHT22;7702;51.046;5.184;2024-02-23T12:42:32;8.50;99.90
15203;DHT22;7702;51.046;5.184;2024-02-23T12:44:58;8.40;99.90
15203;DHT22;7702;51.046;5.184;2024-02-23T12:47:24;8.40;99.90
15203;DHT22;7702;51.046;5.184;2024-02-23T12:49:50;8.40;99.90
15203;DHT22;7702;51.046;5.184;2024-02-23T12:52:15;8.40;99.90
15203;DHT22;7702;51.046;5.184;2024-02-23T12:54:41;8.40;99.90
15203;DHT22;7702;51.046;5.184;2024-02-23T12:57:07;8.40;99.90
15203;DHT22;7702;51.046;5.184;2024-02-23T12:59:33;8.40;99.90
15203;DHT22;7702;51.046;5.184;2024-02-23T13:01:58;8.40;99.90
15203;DHT22;7702;51.046;5.184;2024-02-23T13:04:24;8.40;99.90
15203;DHT22;7702;51.046;5.184;2024-02-23T13:06:49;8.40;99.90
15203;DHT22;7702;51.046;5.184;2024-02-23T13:09:15;8.50;99.90
15203;DHT22;7702;51.046;5.184;2024-02-23T13:11:42;8.50;99.90
15203;DHT22;7702;51.046;5.184;2024-02-23T13:14:08;8.50;99.90
15203;DHT22;7702;51.046;5.184;2024-02-23T13:16:35;8.60;99.90
15203;DHT22;7702;51.046;5.184;2024-02-23T13:19:00;8.70;99.90
15203;DHT22;7702;51.046;5.184;2024-02-23T13:21:26;8.60;99.90
15203;DHT22;7702;51.046;5.184;2024-02-23T13:23:51;8.60;99.90
15203;DHT22;7702;51.046;5.184;2024-02-23T13:26:17;8.60;99.90
15203;DHT22;7702;51.046;5.184;2024-02-23T13:28:43;8.60;99.90
15203;DHT22;7702;51.046;5.184;2024-02-23T13:31:09;8.60;99.90
15203;DHT22;7702;51.046;5.184;2024-02-23T13:33:35;8.60;99.90
15203;DHT22;7702;51.046;5.184;2024-02-23T13:36:01;8.60;99.90
15203;DHT22;7702;51.046;5.184;2024-02-23T13:38:28;8.50;99.90
15203;DHT22;7702;51.046;5.184;2024-02-23T13:40:53;8.70;99.90
15203;DHT22;7702;51.046;5.184;2024-02-23T13:43:19;8.60;99.90
15203;DHT22;7702;51.046;5.184;2024-02-23T13:45:52;8.50;99.90
15203;DHT22;7702;51.046;5.184;2024-02-23T13:48:19;8.50;99.90
15203;DHT22;7702;51.046;5.184;2024-02-23T13:50:47;8.70;99.90
15203;DHT22;7702;51.046;5.184;2024-02-23T13:53:13;8.80;99.90
15203;DHT22;7702;51.046;5.184;2024-02-23T13:55:39;8.80;99.90
15203;DHT22;7702;51.046;5.184;2024-02-23T13:58:05;8.80;99.90
15203;DHT22;7702;51.046;5.184;2024-02-23T14:00:31;8.90;99.90
15203;DHT22;7702;51.046;5.184;2024-02-23T14:02:56;8.80;99.90
15203;DHT22;7702;51.046;5.184;2024-02-23T14:05:22;8.80;99.90
15203;DHT22;7702;51.046;5.184;2024-02-23T14:07:50;8.80;99.90
15203;DHT22;7702;51.046;5.184;2024-02-23T14:10:19;8.70;99.90
15203;DHT22;7702;51.046;5.184;2024-02-23T14:12:45;8.70;99.90
15203;DHT22;7702;51.046;5.184;2024-02-23T14:15:10;8.70;99.90
15203;DHT22;7702;51.046;5.184;2024-02-23T14:17:38;8.80;99.90
15203;DHT22;7702;51.046;5.184;2024-02-23T14:20:05;8.80;99.90
15203;DHT22;7702;51.046;5.184;2024-02-23T14:22:32;8.90;99.90
15203;DHT22;7702;51.046;5.184;2024-02-23T14:24:57;9.10;99.90
15203;DHT22;7702;51.046;5.184;2024-02-23T14:27:24;9.20;99.90
15203;DHT22;7702;51.046;5.184;2024-02-23T14:29:49;9.10;99.90
15203;DHT22;7702;51.046;5.184;2024-02-23T14:32:16;9.10;99.90
15203;DHT22;7702;51.046;5.184;2024-02-23T14:34:42;8.90;99.90
15203;DHT22;7702;51.046;5.184;2024-02-23T14:37:08;8.80;99.90
15203;DHT22;7702;51.046;5.184;2024-02-23T14:39:34;8.80;99.90
15203;DHT22;7702;51.046;5.184;2024-02-23T14:42:00;8.80;99.90
15203;DHT22;7702;51.046;5.184;2024-02-23T14:44:26;8.80;99.90
15203;DHT22;7702;51.046;5.184;2024-02-23T14:46:52;8.90;99.90
15203;DHT22;7702;51.046;5.184;2024-02-23T14:49:18;9.00;99.90
15203;DHT22;7702;51.046;5.184;2024-02-23T14:51:44;8.90;99.90
15203;DHT22;7702;51.046;5.184;2024-02-23T14:54:12;8.90;99.90
15203;DHT22;7702;51.046;5.184;2024-02-23T14:56:38;9.10;99.90
15203;DHT22;7702;51.046;5.184;2024-02-23T14:59:06;9.20;99.90
15203;DHT22;7702;51.046;5.184;2024-02-23T15:01:38;9.30;99.90
15203;DHT22;7702;51.046;5.184;2024-02-23T15:04:06;9.30;99.90
15203;DHT22;7702;51.046;5.184;2024-02-23T15:06:31;9.40;99.90
15203;DHT22;7702;51.046;5.184;2024-02-23T15:08:57;9.50;99.90
15203;DHT22;7702;51.046;5.184;2024-02-23T15:11:23;9.60;99.90
15203;DHT22;7702;51.046;5.184;2024-02-23T15:13:49;9.60;99.90
15203;DHT22;7702;51.046;5.184;2024-02-23T15:16:17;9.50;99.90
15203;DHT22;7702;51.046;5.184;2024-02-23T15:18:42;9.50;99.90
15203;DHT22;7702;51.046;5.184;2024-02-23T15:21:08;9.30;99.90
15203;DHT22;7702;51.046;5.184;2024-02-23T15:23:34;9.20;99.90
15203;DHT22;7702;51.046;5.184;2024-02-23T15:25:59;9.30;99.90
15203;DHT22;7702;51.046;5.184;2024-02-23T15:28:25;9.50;99.90
15203;DHT22;7702;51.046;5.184;2024-02-23T15:30:51;9.50;99.90
15203;DHT22;7702;51.046;5.184;2024-02-23T15:33:18;9.50;99.90
15203;DHT22;7702;51.046;5.184;2024-02-23T15:35:43;9.40;99.90
15203;DHT22;7702;51.046;5.184;2024-02-23T15:38:09;9.40;99.90
15203;DHT22;7702;51.046;5.184;2024-02-23T15:40:35;9.40;99.90
15203;DHT22;7702;51.046;5.184;2024-02-23T15:43:01;9.40;99.90
15203;DHT22;7702;51.046;5.184;2024-02-23T15:45:26;9.20;99.90
15203;DHT22;7702;51.046;5.184;2024-02-23T15:47:52;9.10;99.90
15203;DHT22;7702;51.046;5.184;2024-02-23T15:50:18;9.10;99.90
15203;DHT22;7702;51.046;5.184;2024-02-23T15:52:45;9.00;99.90
15203;DHT22;7702;51.046;5.184;2024-02-23T15:55:11;8.90;99.90
15203;DHT22;7702;51.046;5.184;2024-02-23T15:57:40;8.90;99.90
15203;DHT22;7702;51.046;5.184;2024-02-23T16:00:06;8.90;99.90